createdAt,value
2018-06-22T00:00:13.008Z,12.88
2018-06-22T00:01:12.930Z,12.88
2018-06-22T00:03:05.695Z,12.95
2018-06-22T00:04:05.667Z,12.96
2018-06-22T00:05:58.412Z,12.80
2018-06-22T00:06:58.331Z,12.87
2018-06-22T00:08:51.113Z,12.87
2018-06-22T00:09:51.060Z,12.92
2018-06-22T00:11:43.837Z,12.88
2018-06-22T00:12:43.762Z,12.89
2018-06-22T00:14:36.558Z,12.67
2018-06-22T00:15:36.466Z,12.62
2018-06-22T00:17:29.248Z,12.73
2018-06-22T00:18:29.178Z,12.81
2018-06-22T00:20:21.962Z,12.81
2018-06-22T00:21:21.884Z,12.89
2018-06-22T00:23:14.664Z,12.84
2018-06-22T00:24:14.578Z,12.77
2018-06-22T00:26:07.371Z,12.77
2018-06-22T00:27:07.290Z,12.71
2018-06-22T00:29:00.079Z,12.79
2018-06-22T00:30:00.031Z,12.94
2018-06-22T00:31:52.792Z,12.98
2018-06-22T00:32:52.720Z,12.91
2018-06-22T00:34:45.480Z,12.73
2018-06-22T00:35:45.417Z,12.80
2018-06-22T00:37:38.189Z,12.74
2018-06-22T00:38:38.114Z,12.62
2018-06-22T00:40:30.877Z,12.67
2018-06-22T00:41:30.826Z,12.70
2018-06-22T00:43:23.667Z,12.62
2018-06-22T00:44:23.527Z,12.58
2018-06-22T00:46:16.314Z,12.61
2018-06-22T00:47:16.237Z,12.55
2018-06-22T00:49:09.024Z,12.67
2018-06-22T00:50:08.949Z,12.69
2018-06-22T00:52:01.744Z,12.69
2018-06-22T00:53:01.662Z,12.54
2018-06-22T00:54:54.438Z,12.67
2018-06-22T00:55:54.365Z,12.56
2018-06-22T00:57:47.172Z,12.67
2018-06-22T00:58:47.066Z,12.61
2018-06-22T01:00:39.848Z,12.54
2018-06-22T01:01:39.790Z,12.51
2018-06-22T01:03:32.573Z,12.41
2018-06-22T01:04:32.494Z,12.31
2018-06-22T01:06:25.271Z,12.31
2018-06-22T01:07:25.218Z,12.33
2018-06-22T01:09:17.987Z,12.40
2018-06-22T01:10:18.020Z,12.40
2018-06-22T01:12:10.709Z,12.54
2018-06-22T01:13:10.626Z,12.59
2018-06-22T01:15:03.407Z,12.51
2018-06-22T01:16:03.340Z,12.40
2018-06-22T01:17:56.139Z,12.37
2018-06-22T01:18:56.067Z,12.37
2018-06-22T01:20:48.825Z,12.36
2018-06-22T01:21:48.766Z,12.37
2018-06-22T01:23:41.554Z,12.33
2018-06-22T01:24:41.472Z,12.37
2018-06-22T01:26:34.246Z,12.18
2018-06-22T01:27:34.179Z,12.21
2018-06-22T01:29:26.966Z,12.43
2018-06-22T01:30:26.878Z,12.26
2018-06-22T01:32:19.641Z,12.33
2018-06-22T01:33:19.575Z,12.36
2018-06-22T01:35:12.353Z,12.34
2018-06-22T01:36:12.278Z,12.33
2018-06-22T01:38:05.046Z,12.26
2018-06-22T01:39:04.981Z,12.29
2018-06-22T01:40:57.858Z,12.36
2018-06-22T01:41:57.707Z,12.26
2018-06-22T01:43:50.460Z,12.15
2018-06-22T01:44:50.386Z,12.19
2018-06-22T01:46:43.190Z,12.08
2018-06-22T01:47:43.114Z,12.15
2018-06-22T01:49:35.903Z,12.15
2018-06-22T01:50:35.829Z,12.25
2018-06-22T01:52:28.602Z,12.26
2018-06-22T01:53:28.529Z,12.13
2018-06-22T01:55:21.315Z,12.36
2018-06-22T01:56:21.237Z,12.29
2018-06-22T01:58:14.007Z,12.36
2018-06-22T01:59:13.943Z,12.26
2018-06-22T02:01:06.713Z,12.23
2018-06-22T02:02:06.644Z,12.23
2018-06-22T02:03:59.519Z,12.15
2018-06-22T02:04:59.411Z,12.21
2018-06-22T02:06:52.220Z,12.31
2018-06-22T02:07:52.152Z,12.26
2018-06-22T02:09:44.948Z,12.21
2018-06-22T02:10:44.911Z,12.26
2018-06-22T02:12:38.131Z,12.25
2018-06-22T02:13:38.093Z,12.29
2018-06-22T02:15:30.856Z,12.31
2018-06-22T02:16:30.770Z,12.18
2018-06-22T02:18:23.541Z,12.33
2018-06-22T02:19:23.482Z,12.40
2018-06-22T02:21:16.248Z,12.33
2018-06-22T02:22:16.183Z,12.23
2018-06-22T02:24:08.969Z,12.23
2018-06-22T02:25:08.898Z,12.21
2018-06-22T02:27:01.674Z,12.25
2018-06-22T02:28:01.606Z,12.21
2018-06-22T02:29:54.381Z,12.37
2018-06-22T02:30:54.301Z,12.21
2018-06-22T02:32:47.120Z,12.31
2018-06-22T02:33:47.057Z,12.26
2018-06-22T02:35:39.852Z,12.34
2018-06-22T02:36:39.769Z,12.29
2018-06-22T02:38:32.532Z,12.22
2018-06-22T02:39:32.466Z,12.23
2018-06-22T02:41:25.245Z,12.22
2018-06-22T02:42:25.162Z,12.23
2018-06-22T02:44:17.956Z,12.26
2018-06-22T02:45:17.896Z,12.33
2018-06-22T02:47:10.730Z,12.46
2018-06-22T02:48:10.583Z,12.43
2018-06-22T02:50:03.353Z,12.56
2018-06-22T02:51:03.284Z,12.37
2018-06-22T02:52:56.072Z,12.34
2018-06-22T02:53:55.992Z,12.33
2018-06-22T02:55:48.757Z,12.44
2018-06-22T02:56:48.695Z,12.40
2018-06-22T02:58:41.473Z,12.38
2018-06-22T02:59:41.458Z,12.52
2018-06-22T03:01:34.174Z,12.54
2018-06-22T03:02:34.100Z,12.52
2018-06-22T03:04:26.856Z,12.67
2018-06-22T03:05:26.798Z,12.62
2018-06-22T03:07:19.574Z,12.56
2018-06-22T03:08:19.494Z,12.58
2018-06-22T03:10:12.251Z,12.66
2018-06-22T03:11:12.200Z,12.54
2018-06-22T03:13:04.990Z,12.56
2018-06-22T03:14:04.928Z,12.41
2018-06-22T03:15:57.672Z,12.49
2018-06-22T03:16:57.621Z,12.51
2018-06-22T03:18:50.413Z,12.49
2018-06-22T03:19:50.359Z,12.49
2018-06-22T03:21:43.068Z,12.49
2018-06-22T03:22:43.013Z,12.49
2018-06-22T03:24:35.783Z,12.54
2018-06-22T03:25:35.703Z,12.54
2018-06-22T03:27:28.470Z,12.48
2018-06-22T03:28:28.402Z,12.49
2018-06-22T03:30:21.188Z,12.54
2018-06-22T03:31:21.113Z,12.63
2018-06-22T03:33:13.911Z,12.66
2018-06-22T03:34:13.834Z,12.67
2018-06-22T03:36:06.596Z,12.62
2018-06-22T03:37:06.531Z,12.58
2018-06-22T03:38:59.308Z,12.51
2018-06-22T03:39:59.228Z,12.52
2018-06-22T03:41:52.018Z,12.49
2018-06-22T03:42:51.952Z,12.52
2018-06-22T03:44:44.799Z,12.59
2018-06-22T03:45:44.772Z,12.61
2018-06-22T03:47:37.503Z,12.56
2018-06-22T03:48:37.431Z,12.58
2018-06-22T03:50:30.213Z,12.66
2018-06-22T03:51:30.132Z,12.62
2018-06-22T03:53:22.902Z,12.66
2018-06-22T03:54:22.822Z,12.61
2018-06-22T03:56:15.594Z,12.63
2018-06-22T03:57:15.532Z,12.61
2018-06-22T03:59:08.319Z,12.62
2018-06-22T04:00:08.243Z,12.59
2018-06-22T04:02:01.015Z,12.55
2018-06-22T04:03:00.949Z,12.58
2018-06-22T04:04:53.737Z,12.62
2018-06-22T04:05:53.662Z,12.70
2018-06-22T04:07:46.442Z,12.63
2018-06-22T04:08:46.371Z,12.81
2018-06-22T04:10:39.160Z,12.69
2018-06-22T04:11:39.097Z,12.62
2018-06-22T04:13:31.951Z,12.66
2018-06-22T04:14:31.816Z,12.76
2018-06-22T04:16:24.570Z,12.63
2018-06-22T04:17:24.504Z,12.74
2018-06-22T04:19:17.345Z,12.70
2018-06-22T04:20:17.244Z,12.70
2018-06-22T04:22:10.056Z,12.77
2018-06-22T04:23:09.989Z,12.77
2018-06-22T04:25:02.785Z,12.79
2018-06-22T04:26:02.710Z,12.59
2018-06-22T04:27:55.480Z,12.67
2018-06-22T04:28:55.410Z,12.67
2018-06-22T04:30:48.208Z,12.84
2018-06-22T04:31:48.118Z,12.74
2018-06-22T04:33:40.887Z,12.74
2018-06-22T04:34:40.826Z,12.63
2018-06-22T04:36:33.596Z,12.73
2018-06-22T04:37:33.550Z,12.70
2018-06-22T04:39:26.319Z,12.81
2018-06-22T04:40:26.246Z,12.76
2018-06-22T04:42:19.036Z,12.79
2018-06-22T04:43:18.961Z,12.70
2018-06-22T04:45:11.770Z,12.71
2018-06-22T04:46:11.707Z,12.74
2018-06-22T04:48:04.482Z,12.73
2018-06-22T04:49:04.415Z,12.74
2018-06-22T04:50:57.205Z,12.76
2018-06-22T04:51:57.122Z,12.87
2018-06-22T04:53:49.927Z,12.84
2018-06-22T04:54:49.840Z,12.74
2018-06-22T04:56:42.644Z,12.76
2018-06-22T04:57:42.544Z,12.79
2018-06-22T04:59:35.369Z,12.88
2018-06-22T05:00:35.276Z,12.92
2018-06-22T05:02:28.038Z,12.96
2018-06-22T05:03:27.985Z,12.95
2018-06-22T05:05:20.760Z,12.99
2018-06-22T05:06:20.683Z,12.98
2018-06-22T05:08:13.473Z,12.99
2018-06-22T05:09:13.408Z,12.92
2018-06-22T05:11:06.188Z,12.96
2018-06-22T05:12:06.108Z,12.88
2018-06-22T05:13:58.890Z,12.98
2018-06-22T05:14:58.828Z,12.98
2018-06-22T05:16:51.617Z,12.98
2018-06-22T05:17:51.541Z,12.99
2018-06-22T05:19:44.382Z,13.06
2018-06-22T05:20:44.328Z,13.04
2018-06-22T05:22:37.156Z,13.10
2018-06-22T05:23:37.018Z,12.96
2018-06-22T05:25:30.290Z,12.96
2018-06-22T05:26:30.088Z,12.91
2018-06-22T05:28:22.909Z,13.12
2018-06-22T05:29:22.856Z,13.36
2018-06-22T05:31:15.630Z,13.44
2018-06-22T05:32:15.587Z,13.48
2018-06-22T05:34:08.344Z,13.44
2018-06-22T05:35:08.277Z,13.43
2018-06-22T05:37:01.097Z,13.35
2018-06-22T05:38:01.032Z,13.38
2018-06-22T05:39:53.763Z,13.16
2018-06-22T05:40:53.707Z,13.46
2018-06-22T05:42:46.510Z,13.36
2018-06-22T05:43:46.452Z,13.43
2018-06-22T05:45:39.227Z,13.61
2018-06-22T05:46:39.147Z,13.62
2018-06-22T05:48:31.908Z,13.72
2018-06-22T05:49:31.849Z,13.79
2018-06-22T05:51:24.646Z,13.73
2018-06-22T05:52:24.573Z,13.79
2018-06-22T05:54:17.389Z,13.84
2018-06-22T05:55:17.292Z,13.91
2018-06-22T05:57:10.070Z,14.02
2018-06-22T05:58:09.999Z,14.01
2018-06-22T06:00:02.788Z,14.01
2018-06-22T06:01:02.713Z,14.04
2018-06-22T06:02:55.496Z,13.84
2018-06-22T06:03:55.434Z,13.93
2018-06-22T06:05:48.253Z,14.01
2018-06-22T06:06:48.213Z,13.83
2018-06-22T06:08:40.919Z,13.88
2018-06-22T06:09:40.841Z,13.91
2018-06-22T06:11:33.633Z,14.02
2018-06-22T06:12:33.670Z,14.01
2018-06-22T06:14:26.329Z,14.08
2018-06-22T06:15:26.272Z,14.09
2018-06-22T06:17:19.059Z,14.08
2018-06-22T06:18:18.994Z,14.02
2018-06-22T06:20:11.762Z,14.11
2018-06-22T06:21:11.689Z,14.30
2018-06-22T06:23:04.500Z,14.34
2018-06-22T06:24:04.464Z,14.21
2018-06-22T06:25:57.211Z,14.19
2018-06-22T06:26:57.133Z,14.09
2018-06-22T06:28:49.934Z,14.12
2018-06-22T06:29:49.833Z,14.11
2018-06-22T06:31:42.680Z,14.06
2018-06-22T06:32:42.584Z,14.12
2018-06-22T06:34:35.360Z,14.12
2018-06-22T06:35:35.291Z,14.11
2018-06-22T06:37:28.102Z,14.20
2018-06-22T06:38:28.017Z,14.23
2018-06-22T06:40:20.808Z,14.19
2018-06-22T06:41:20.755Z,14.06
2018-06-22T06:43:13.509Z,14.26
2018-06-22T06:44:13.435Z,14.45
2018-06-22T06:46:06.224Z,14.52
2018-06-22T06:47:06.136Z,14.46
2018-06-22T06:48:58.950Z,14.56
2018-06-22T06:49:58.865Z,14.61
2018-06-22T06:51:51.652Z,14.59
2018-06-22T06:52:51.587Z,14.52
2018-06-22T06:54:44.393Z,14.46
2018-06-22T06:55:44.316Z,14.45
2018-06-22T06:57:37.110Z,14.45
2018-06-22T06:58:37.036Z,14.42
2018-06-22T07:00:29.843Z,14.34
2018-06-22T07:01:29.782Z,14.29
2018-06-22T07:03:22.578Z,14.30
2018-06-22T07:04:22.481Z,14.21
2018-06-22T07:06:15.275Z,14.17
2018-06-22T07:07:15.202Z,14.13
2018-06-22T07:09:08.016Z,14.23
2018-06-22T07:10:07.928Z,14.38
2018-06-22T07:12:00.693Z,14.72
2018-06-22T07:13:00.633Z,14.75
2018-06-22T07:14:53.421Z,14.80
2018-06-22T07:15:53.358Z,14.82
2018-06-22T07:17:46.180Z,14.85
2018-06-22T07:18:46.115Z,14.74
2018-06-22T07:20:38.917Z,14.83
2018-06-22T07:21:38.852Z,14.97
2018-06-22T07:23:31.672Z,15.31
2018-06-22T07:24:31.577Z,15.70
2018-06-22T07:26:24.369Z,15.66
2018-06-22T07:27:24.285Z,15.66
2018-06-22T07:29:17.162Z,15.58
2018-06-22T07:30:17.011Z,15.58
2018-06-22T07:32:09.793Z,15.22
2018-06-22T07:33:09.753Z,15.04
2018-06-22T07:35:02.531Z,14.86
2018-06-22T07:36:02.548Z,14.61
2018-06-22T07:37:55.236Z,14.59
2018-06-22T07:38:55.164Z,14.31
2018-06-22T07:40:47.934Z,14.17
2018-06-22T07:41:47.875Z,13.71
2018-06-22T07:43:40.685Z,13.61
2018-06-22T07:44:40.603Z,13.63
2018-06-22T07:46:33.404Z,13.46
2018-06-22T07:47:33.328Z,13.22
2018-06-22T07:49:26.135Z,13.36
2018-06-22T07:50:26.043Z,13.36
2018-06-22T07:52:18.800Z,13.41
2018-06-22T07:53:18.728Z,13.44
2018-06-22T07:55:11.600Z,13.57
2018-06-22T07:56:11.514Z,13.75
2018-06-22T07:58:04.323Z,13.94
2018-06-22T07:59:04.213Z,13.94
2018-06-22T08:00:56.977Z,14.11
2018-06-22T08:01:56.915Z,14.17
2018-06-22T08:03:49.711Z,14.17
2018-06-22T08:04:49.731Z,14.16
2018-06-22T08:06:42.562Z,14.09
2018-06-22T08:07:42.490Z,14.17
2018-06-22T08:09:35.709Z,14.04
2018-06-22T08:10:35.563Z,14.08
2018-06-22T08:12:28.309Z,14.04
2018-06-22T08:13:28.303Z,14.02
2018-06-22T08:15:21.221Z,14.09
2018-06-22T08:16:21.202Z,14.16
2018-06-22T08:18:14.396Z,14.21
2018-06-22T08:19:14.157Z,14.24
2018-06-22T08:21:07.100Z,14.23
2018-06-22T08:22:07.060Z,14.21
2018-06-22T08:24:00.127Z,14.30
2018-06-22T08:24:59.899Z,14.46
2018-06-22T08:26:53.146Z,14.54
2018-06-22T08:27:52.982Z,14.49
2018-06-22T08:29:45.796Z,14.75
2018-06-22T08:30:45.935Z,14.83
2018-06-22T08:32:38.499Z,15.03
2018-06-22T08:33:38.475Z,15.03
2018-06-22T08:35:31.549Z,15.04
2018-06-22T08:36:31.361Z,15.00
2018-06-22T08:38:24.420Z,14.80
2018-06-22T08:39:24.298Z,14.75
2018-06-22T08:41:17.498Z,14.49
2018-06-22T08:42:17.120Z,14.49
2018-06-22T08:44:10.222Z,14.74
2018-06-22T08:45:10.314Z,14.90
2018-06-22T08:47:03.051Z,14.82
2018-06-22T08:48:03.019Z,14.94
2018-06-22T08:49:55.994Z,14.98
2018-06-22T08:50:55.952Z,14.95
2018-06-22T08:52:48.845Z,15.00
2018-06-22T08:53:48.769Z,15.23
2018-06-22T08:55:41.890Z,15.76
2018-06-22T08:56:41.693Z,15.98
2018-06-22T08:58:34.809Z,16.51
2018-06-22T08:59:34.544Z,16.55
2018-06-22T09:01:27.801Z,17.03
2018-06-22T09:02:27.479Z,17.45
2018-06-22T09:04:20.523Z,17.77
2018-06-22T09:05:20.447Z,18.16
2018-06-22T09:07:13.496Z,18.29
2018-06-22T09:08:13.548Z,18.78
2018-06-22T09:10:06.665Z,19.49
2018-06-22T09:11:06.348Z,19.61
2018-06-22T09:12:59.270Z,19.94
2018-06-22T09:13:59.249Z,20.16
2018-06-22T09:15:52.162Z,20.57
2018-06-22T09:16:52.380Z,20.60
2018-06-22T09:18:45.754Z,20.54
2018-06-22T09:19:45.582Z,20.64
2018-06-22T09:21:38.496Z,20.68
2018-06-22T09:22:38.429Z,20.69
2018-06-22T09:24:31.354Z,20.46
2018-06-22T09:25:31.189Z,20.54
2018-06-22T09:27:24.047Z,19.45
2018-06-22T09:28:23.898Z,18.96
2018-06-22T09:30:17.009Z,18.05
2018-06-22T09:31:16.713Z,17.47
2018-06-22T09:33:10.135Z,16.69
2018-06-22T09:34:10.162Z,16.27
2018-06-22T09:36:03.079Z,15.91
2018-06-22T09:37:03.114Z,15.89
2018-06-22T09:38:55.903Z,15.66
2018-06-22T09:39:55.877Z,15.89
2018-06-22T09:41:48.890Z,17.22
2018-06-22T09:42:49.047Z,17.77
2018-06-22T09:44:42.228Z,18.65
2018-06-22T09:45:42.107Z,19.12
2018-06-22T09:47:35.020Z,19.40
2018-06-22T09:48:34.887Z,19.70
2018-06-22T09:50:27.780Z,19.71
2018-06-22T09:51:27.723Z,19.76
2018-06-22T09:53:20.696Z,19.55
2018-06-22T09:54:20.538Z,19.46
2018-06-22T09:56:13.623Z,19.83
2018-06-22T09:57:13.534Z,20.12
2018-06-22T09:59:06.394Z,19.50
2018-06-22T10:00:06.235Z,19.23
2018-06-22T10:01:59.258Z,18.53
2018-06-22T10:02:59.222Z,18.34
2018-06-22T10:04:52.343Z,17.74
2018-06-22T10:05:52.271Z,17.45
2018-06-22T10:07:45.133Z,17.10
2018-06-22T10:08:45.069Z,16.91
2018-06-22T10:10:38.280Z,16.30
2018-06-22T10:11:38.180Z,16.03
2018-06-22T10:13:30.853Z,15.64
2018-06-22T10:14:30.789Z,15.49
2018-06-22T10:16:23.629Z,15.46
2018-06-22T10:17:23.551Z,15.31
2018-06-22T10:19:16.318Z,15.23
2018-06-22T10:20:16.256Z,15.28
2018-06-22T10:22:09.041Z,15.23
2018-06-22T10:23:09.105Z,15.33
2018-06-22T10:25:01.758Z,15.23
2018-06-22T10:26:01.684Z,15.40
2018-06-22T10:27:54.498Z,15.55
2018-06-22T10:28:54.409Z,15.88
2018-06-22T10:30:47.195Z,16.32
2018-06-22T10:31:47.131Z,16.42
2018-06-22T10:33:39.924Z,16.45
2018-06-22T10:34:39.832Z,16.55
2018-06-22T10:36:32.636Z,16.85
2018-06-22T10:37:32.582Z,17.07
2018-06-22T10:39:25.361Z,17.63
2018-06-22T10:40:25.294Z,17.98
2018-06-22T10:42:18.111Z,18.09
2018-06-22T10:43:18.030Z,18.19
2018-06-22T10:45:10.831Z,18.31
2018-06-22T10:46:10.756Z,18.51
2018-06-22T10:48:03.566Z,19.24
2018-06-22T10:49:03.478Z,19.20
2018-06-22T10:50:56.286Z,19.17
2018-06-22T10:51:56.230Z,19.24
2018-06-22T10:53:49.073Z,19.21
2018-06-22T10:54:48.980Z,19.28
2018-06-22T10:56:41.760Z,19.50
2018-06-22T10:57:41.696Z,19.42
2018-06-22T10:59:34.498Z,19.53
2018-06-22T11:00:34.403Z,19.49
2018-06-22T11:02:27.194Z,19.58
2018-06-22T11:03:27.125Z,19.34
2018-06-22T11:05:19.923Z,18.90
2018-06-22T11:06:19.827Z,18.66
2018-06-22T11:08:12.613Z,18.38
2018-06-22T11:09:12.620Z,18.04
2018-06-22T11:11:05.340Z,17.74
2018-06-22T11:12:05.262Z,17.55
2018-06-22T11:13:58.048Z,17.57
2018-06-22T11:14:57.975Z,17.53
2018-06-22T11:16:50.782Z,17.55
2018-06-22T11:17:50.668Z,17.55
2018-06-22T11:19:43.464Z,17.71
2018-06-22T11:20:43.392Z,18.34
2018-06-22T11:22:36.233Z,18.71
2018-06-22T11:23:36.163Z,18.76
2018-06-22T11:25:28.962Z,19.09
2018-06-22T11:26:28.871Z,19.20
2018-06-22T11:28:21.654Z,19.30
2018-06-22T11:29:21.595Z,19.28
2018-06-22T11:31:14.414Z,19.40
2018-06-22T11:32:14.317Z,19.52
2018-06-22T11:34:07.122Z,19.80
2018-06-22T11:35:07.052Z,19.50
2018-06-22T11:36:59.858Z,19.65
2018-06-22T11:37:59.773Z,19.62
2018-06-22T11:39:52.565Z,19.42
2018-06-22T11:40:52.490Z,19.20
2018-06-22T11:42:45.296Z,18.75
2018-06-22T11:43:45.217Z,18.83
2018-06-22T11:45:38.049Z,19.21
2018-06-22T11:46:37.982Z,19.07
2018-06-22T11:48:30.775Z,19.21
2018-06-22T11:49:30.695Z,19.42
2018-06-22T11:51:23.470Z,19.30
2018-06-22T11:52:23.404Z,19.67
2018-06-22T11:54:16.194Z,20.00
2018-06-22T11:55:16.119Z,20.22
2018-06-22T11:57:08.910Z,20.19
2018-06-22T11:58:08.852Z,20.08
2018-06-22T12:00:01.644Z,19.97
2018-06-22T12:01:01.575Z,19.70
2018-06-22T12:02:54.367Z,19.78
2018-06-22T12:03:54.288Z,19.71
2018-06-22T12:05:47.090Z,19.72
2018-06-22T12:06:47.014Z,19.82
2018-06-22T12:08:39.791Z,19.78
2018-06-22T12:09:39.718Z,19.68
2018-06-22T12:11:32.537Z,19.40
2018-06-22T12:12:32.445Z,19.35
2018-06-22T12:14:25.255Z,19.35
2018-06-22T12:15:25.181Z,19.34
2018-06-22T12:17:17.999Z,19.32
2018-06-22T12:18:17.885Z,19.39
2018-06-22T12:20:10.705Z,19.25
2018-06-22T12:21:10.625Z,19.31
2018-06-22T12:23:03.385Z,19.49
2018-06-22T12:24:03.333Z,19.72
2018-06-22T12:25:56.136Z,19.75
2018-06-22T12:26:56.055Z,19.90
2018-06-22T12:28:48.853Z,20.00
2018-06-22T12:29:48.768Z,19.75
2018-06-22T12:31:41.564Z,19.57
2018-06-22T12:32:41.498Z,19.47
2018-06-22T12:34:34.304Z,19.30
2018-06-22T12:35:34.231Z,19.31
2018-06-22T12:37:27.025Z,19.27
2018-06-22T12:38:26.971Z,19.40
2018-06-22T12:40:19.785Z,19.53
2018-06-22T12:41:19.719Z,19.55
2018-06-22T12:43:12.522Z,19.82
2018-06-22T12:44:12.429Z,19.78
2018-06-22T12:46:05.244Z,20.04
2018-06-22T12:47:05.151Z,20.16
2018-06-22T12:48:57.921Z,20.19
2018-06-22T12:49:57.866Z,20.35
2018-06-22T12:51:50.644Z,20.35
2018-06-22T12:52:50.574Z,20.48
2018-06-22T12:54:43.363Z,20.53
2018-06-22T12:55:43.296Z,20.46
2018-06-22T12:57:36.110Z,20.42
2018-06-22T12:58:36.018Z,20.56
2018-06-22T13:00:28.824Z,20.31
2018-06-22T13:01:28.728Z,20.19
2018-06-22T13:03:21.515Z,20.00
2018-06-22T13:04:21.450Z,19.98
2018-06-22T13:06:14.258Z,19.83
2018-06-22T13:07:14.180Z,19.78
2018-06-22T13:09:07.179Z,19.60
2018-06-22T13:10:06.926Z,19.62
2018-06-22T13:11:59.683Z,19.79
2018-06-22T13:12:59.604Z,19.86
2018-06-22T13:14:52.415Z,19.97
2018-06-22T13:15:52.356Z,19.94
2018-06-22T13:17:45.123Z,19.82
2018-06-22T13:18:45.063Z,19.79
2018-06-22T13:20:37.858Z,19.65
2018-06-22T13:21:37.797Z,19.70
2018-06-22T13:23:30.584Z,19.71
2018-06-22T13:24:30.522Z,19.61
2018-06-22T13:26:23.326Z,19.68
2018-06-22T13:27:23.255Z,19.68
2018-06-22T13:29:16.078Z,19.70
2018-06-22T13:30:16.012Z,19.68
2018-06-22T13:32:08.827Z,19.62
2018-06-22T13:33:08.820Z,19.65
2018-06-22T13:35:01.522Z,19.65
2018-06-22T13:36:01.450Z,19.61
2018-06-22T13:37:54.233Z,19.67
2018-06-22T13:38:54.163Z,19.70
2018-06-22T13:40:46.989Z,19.50
2018-06-22T13:41:46.890Z,19.45
2018-06-22T13:43:39.720Z,19.43
2018-06-22T13:44:39.611Z,19.52
2018-06-22T13:46:32.433Z,19.60
2018-06-22T13:47:32.342Z,19.64
2018-06-22T13:49:25.142Z,19.79
2018-06-22T13:50:25.105Z,19.94
2018-06-22T13:52:17.894Z,19.98
2018-06-22T13:53:17.810Z,19.97
2018-06-22T13:55:10.652Z,19.92
2018-06-22T13:56:10.538Z,19.82
2018-06-22T13:58:03.315Z,19.72
2018-06-22T13:59:03.240Z,19.67
2018-06-22T14:00:56.040Z,19.61
2018-06-22T14:01:55.984Z,19.67
2018-06-22T14:03:48.798Z,19.61
2018-06-22T14:04:48.678Z,19.61
2018-06-22T14:06:41.488Z,19.53
2018-06-22T14:07:41.391Z,19.52
2018-06-22T14:09:34.215Z,19.39
2018-06-22T14:10:34.146Z,19.32
2018-06-22T14:12:27.017Z,19.20
2018-06-22T14:13:26.920Z,19.07
2018-06-22T14:15:19.692Z,19.06
2018-06-22T14:16:19.628Z,19.06
2018-06-22T14:18:12.416Z,19.07
2018-06-22T14:19:12.335Z,19.09
2018-06-22T14:21:05.120Z,19.17
2018-06-22T14:22:05.054Z,19.13
2018-06-22T14:23:57.868Z,19.23
2018-06-22T14:24:57.782Z,19.24
2018-06-22T14:26:50.590Z,19.27
2018-06-22T14:27:50.519Z,19.31
2018-06-22T14:29:43.325Z,19.28
2018-06-22T14:30:43.254Z,19.40
2018-06-22T14:32:36.093Z,19.52
2018-06-22T14:33:35.984Z,19.52
2018-06-22T14:35:28.791Z,19.40
2018-06-22T14:36:28.722Z,19.39
2018-06-22T14:38:21.514Z,19.40
2018-06-22T14:39:21.433Z,19.61
2018-06-22T14:41:14.233Z,19.70
2018-06-22T14:42:14.148Z,19.80
2018-06-22T14:44:06.954Z,20.02
2018-06-22T14:45:06.866Z,20.20
2018-06-22T14:46:59.655Z,20.30
2018-06-22T14:47:59.568Z,20.50
2018-06-22T14:49:52.379Z,20.68
2018-06-22T14:50:52.315Z,20.69
2018-06-22T14:52:45.138Z,20.64
2018-06-22T14:53:45.033Z,20.54
2018-06-22T14:55:37.902Z,20.51
2018-06-22T14:56:37.843Z,20.44
2018-06-22T14:58:30.600Z,20.40
2018-06-22T14:59:30.498Z,20.40
2018-06-22T15:01:24.153Z,20.22
2018-06-22T15:02:23.879Z,20.20
2018-06-22T15:04:16.655Z,20.16
2018-06-22T15:05:16.647Z,20.08
2018-06-22T15:07:09.419Z,19.95
2018-06-22T15:08:09.325Z,19.83
2018-06-22T15:10:02.141Z,19.72
2018-06-22T15:11:02.049Z,19.65
2018-06-22T15:12:54.844Z,19.53
2018-06-22T15:13:54.770Z,19.53
2018-06-22T15:15:47.543Z,19.47
2018-06-22T15:16:47.481Z,19.52
2018-06-22T15:18:40.283Z,19.62
2018-06-22T15:19:40.208Z,19.62
2018-06-22T15:21:33.005Z,19.65
2018-06-22T15:22:32.945Z,19.60
2018-06-22T15:24:25.739Z,19.68
2018-06-22T15:25:25.667Z,19.68
2018-06-22T15:27:18.437Z,19.75
2018-06-22T15:28:18.378Z,19.76
2018-06-22T15:30:11.190Z,19.68
2018-06-22T15:31:11.097Z,19.78
2018-06-22T15:33:03.874Z,19.75
2018-06-22T15:34:03.821Z,19.71
2018-06-22T15:35:56.624Z,19.72
2018-06-22T15:36:56.534Z,19.68
2018-06-22T15:38:49.327Z,19.79
2018-06-22T15:39:49.290Z,19.94
2018-06-22T15:41:42.045Z,20.08
2018-06-22T15:42:41.982Z,20.31
2018-06-22T15:44:34.770Z,20.51
2018-06-22T15:45:34.700Z,20.76
2018-06-22T15:47:27.551Z,20.83
2018-06-22T15:48:27.479Z,20.88
2018-06-22T15:50:20.300Z,20.93
2018-06-22T15:51:20.235Z,20.87
2018-06-22T15:53:12.993Z,20.93
2018-06-22T15:54:12.960Z,20.85
2018-06-22T15:56:05.734Z,20.82
2018-06-22T15:57:05.646Z,20.81
2018-06-22T15:58:58.438Z,20.68
2018-06-22T15:59:58.412Z,20.69
2018-06-22T16:01:51.199Z,20.75
2018-06-22T16:02:51.121Z,20.72
2018-06-22T16:04:43.915Z,20.54
2018-06-22T16:05:43.905Z,20.44
2018-06-22T16:07:36.640Z,20.35
2018-06-22T16:08:36.567Z,20.33
2018-06-22T16:10:29.364Z,20.33
2018-06-22T16:11:29.412Z,20.33
2018-06-22T16:13:22.076Z,20.33
2018-06-22T16:14:22.009Z,20.31
2018-06-22T16:16:14.803Z,20.30
2018-06-22T16:17:14.713Z,20.27
2018-06-22T16:19:07.564Z,20.08
2018-06-22T16:20:07.426Z,20.05
2018-06-22T16:22:00.302Z,19.86
2018-06-22T16:23:00.216Z,19.90
2018-06-22T16:24:53.017Z,19.86
2018-06-22T16:25:52.919Z,19.78
2018-06-22T16:27:45.729Z,19.82
2018-06-22T16:28:45.634Z,19.75
2018-06-22T16:30:38.532Z,19.86
2018-06-22T16:31:38.359Z,19.79
2018-06-22T16:33:31.140Z,19.83
2018-06-22T16:34:31.077Z,19.82
2018-06-22T16:36:23.900Z,20.01
2018-06-22T16:37:23.815Z,20.02
2018-06-22T16:39:16.602Z,20.22
2018-06-22T16:40:16.533Z,20.16
2018-06-22T16:42:09.318Z,20.19
2018-06-22T16:43:09.280Z,20.22
2018-06-22T16:45:02.023Z,20.23
2018-06-22T16:46:01.969Z,20.23
2018-06-22T16:47:54.757Z,20.40
2018-06-22T16:48:54.673Z,20.40
2018-06-22T16:50:47.459Z,20.51
2018-06-22T16:51:47.398Z,20.58
2018-06-22T16:53:40.264Z,20.57
2018-06-22T16:54:40.112Z,20.63
2018-06-22T16:56:32.904Z,20.57
2018-06-22T16:57:32.828Z,20.51
2018-06-22T16:59:25.626Z,20.58
2018-06-22T17:00:25.571Z,20.63
2018-06-22T17:02:18.369Z,20.57
2018-06-22T17:03:18.297Z,20.41
2018-06-22T17:05:11.055Z,20.04
2018-06-22T17:06:11.005Z,20.08
2018-06-22T17:08:03.800Z,19.97
2018-06-22T17:09:03.732Z,19.79
2018-06-22T17:10:56.515Z,19.78
2018-06-22T17:11:56.456Z,19.71
2018-06-22T17:13:49.238Z,19.60
2018-06-22T17:14:49.164Z,19.60
2018-06-22T17:16:41.953Z,19.50
2018-06-22T17:17:41.885Z,19.60
2018-06-22T17:19:34.676Z,19.47
2018-06-22T17:20:34.614Z,19.49
2018-06-22T17:22:27.398Z,19.58
2018-06-22T17:23:27.323Z,19.50
2018-06-22T17:25:20.111Z,19.46
2018-06-22T17:26:20.054Z,19.40
2018-06-22T17:28:12.913Z,19.38
2018-06-22T17:29:12.808Z,19.45
2018-06-22T17:31:05.546Z,19.40
2018-06-22T17:32:05.480Z,19.42
2018-06-22T17:33:58.283Z,19.42
2018-06-22T17:34:58.212Z,19.39
2018-06-22T17:36:50.980Z,19.32
2018-06-22T17:37:50.929Z,19.24
2018-06-22T17:39:43.709Z,19.31
2018-06-22T17:40:43.636Z,19.21
2018-06-22T17:42:36.445Z,19.21
2018-06-22T17:43:36.353Z,19.16
2018-06-22T17:45:29.129Z,19.13
2018-06-22T17:46:29.170Z,19.13
2018-06-22T17:48:21.852Z,18.96
2018-06-22T17:49:21.774Z,18.87
2018-06-22T17:51:14.593Z,18.36
2018-06-22T17:52:14.534Z,17.98
2018-06-22T17:54:07.332Z,17.10
2018-06-22T17:55:07.262Z,16.84
2018-06-22T17:57:00.029Z,16.40
2018-06-22T17:57:59.963Z,16.27
2018-06-22T17:59:52.764Z,16.08
2018-06-22T18:00:52.699Z,16.03
2018-06-22T18:02:45.483Z,15.76
2018-06-22T18:03:45.425Z,15.74
2018-06-22T18:05:38.227Z,15.89
2018-06-22T18:06:38.143Z,15.92
2018-06-22T18:08:30.934Z,15.99
2018-06-22T18:09:30.859Z,15.96
2018-06-22T18:11:23.637Z,15.95
2018-06-22T18:12:23.672Z,16.14
2018-06-22T18:14:16.336Z,16.27
2018-06-22T18:15:16.269Z,16.29
2018-06-22T18:17:09.077Z,16.40
2018-06-22T18:18:09.001Z,16.47
2018-06-22T18:20:01.807Z,16.47
2018-06-22T18:21:01.740Z,16.45
2018-06-22T18:22:54.556Z,16.47
2018-06-22T18:23:54.451Z,16.51
2018-06-22T18:25:47.234Z,16.44
2018-06-22T18:26:47.154Z,16.59
2018-06-22T18:28:39.939Z,16.54
2018-06-22T18:29:39.879Z,16.59
2018-06-22T18:31:32.668Z,16.59